首页
METAR-TAF:

METAR-TAF

机场 :

多森, 阿拉巴马州, 美国

纬度: 31-19-17N, 经度: 085-26-59W, 海拔: 122米

当前天气观测

该预报发布于1小时和1分钟前的04:53 UTC
风速6节,风向西南
温度 27°C
湿度 74%
气压 1020 hPa
能見度: 16.1公里
少量云层高于7000英尺

METAR: KDHN 270453Z AUTO 22006KT 10SM FEW070 27/22 A3012 RMK AO2 SLP193 T02720222 403780217

时间: 00:54 (05:54 UTC)

预报

该预报发布于19分钟前的05:35 UTC
预报有效从27日的 06点(UTC)到 28日的 06点(UTC)
风速6节,风向西转西南
能見度: 10公里
散云层高于6000英尺

TAF: KDHN 270535Z 2706/2806 25006KT P6SM SCT060

超过4000个机场的气象观测和天气预报(METAR&TAF报告)。

可查询的气象台以黄色和红色小点在地图上表示。

将鼠标移到小点上方,可查看气象台名称。

然后点击查看天气观测和预报。

如需切换地图:点击带黑十字的绿色按钮放大地图;点击带横线的绿色按钮缩小地图;或者点击绿色箭头查看邻近地区的地图。


METAR-TAF: